Hovedside
METAR-TAF:

METAR-TAF

Lufthavner :

Örebro, Sverige

breddegrad: 59-14N, lengdegrad: 015-03E, høyde over havet: 57 m

Gjeldene værobservasjon

Denne rapporten ble laget for 19 minutter siden, klokken 13:50 UTC
Vind 5 kt fra Øst-sørøst, skiftende mellom Øst-nordøst og Sørøst
Temperatur 22°C
Luftfuktighet 43%
Trykk 1010 hPa
Sikt 10 km eller mer
ingen skyer under 1500 m og ingen bygeskyer

METAR: ESOE 301350Z 11005KT 070V140 CAVOK 22/09 Q1010

Tid: 16:09 (14:09 UTC)

Varsel

Denne rapporten ble laget for 2 timer og 39 minutter siden, klokken 11:30 UTC
Varsel gyldig fra 30. klokken 12 UTC til 30. klokken 21 UTC
Vind 7 kt fra Øst
Sikt 10 km eller mer
Spredte skyer i en høyde av 5000 ft

TAF: ESOE 301130Z 3012/3021 09007KT 9999 SCT050

Værobservasjoner og værvarsel for over 4000 flyplasser (METAR- og TAF-rapporter).

Tilgjengelige stasjoner er representert av de røde og gule prikkene på kartet.

Hold musepekeren over prikken for å se navnet på stasjonen.

Klikk så for å se værobservasjoner og -varsler.

For å forandre kartet kan du klikke på den grønne knappen med svart kryss for å zoome inn, på den grønne knappen med strek for å zoome ut, eller på de grønne pilene for å se tilstøtende kart.


METAR-TAF: